Time;durP1;ratioP1;P1;durP2;ratioP2;P2;SDS_P1;SDS_P2;PMS_P1;PMS_P2;Temp;Humidity;BMP_temperature;BMP_pressure;BME280_temperature;BME280_humidity;BME280_pressure;Samples;Min_cycle;Max_cycle;Signal;HPM_P1;HPM_P2
2022/09/03 00:01:38;;;;;;;4.30;1.70;;;;;;;16.36;44.38;99282.92;238910;1190;140483;-60
2022/09/03 00:06:48;;;;;;;4.50;1.90;;;;;;;16.34;44.25;99284.34;238942;1190;139083;-57
2022/09/03 00:12:23;;;;;;;3.50;1.60;;;;;;;16.31;44.31;99279.01;238622;1191;140452;-59
2022/09/03 00:17:32;;;;;;;4.30;2.10;;;;;;;16.25;44.43;99276.83;238611;1191;139468;-59
2022/09/03 00:22:39;;;;;;;3.80;1.90;;;;;;;16.23;44.78;99271.84;238771;1190;140067;-60
2022/09/03 00:27:44;;;;;;;3.30;2.00;;;;;;;16.22;45.00;99272.98;238658;1190;139686;-60
2022/09/03 00:33:01;;;;;;;2.80;1.80;;;;;;;16.22;45.07;99271.05;238574;1192;139967;-60
2022/09/03 00:38:05;;;;;;;6.90;2.10;;;;;;;16.20;45.25;99270.27;238749;1191;139555;-58
2022/09/03 00:43:37;;;;;;;3.60;1.80;;;;;;;16.21;45.24;99268.75;238908;1191;140783;-58
2022/09/03 00:49:04;;;;;;;3.70;1.80;;;;;;;16.17;45.25;99264.05;238073;1192;140569;-58
2022/09/03 00:54:07;;;;;;;5.10;2.00;;;;;;;16.13;45.29;99261.71;238452;1192;139822;-58
2022/09/03 00:59:24;;;;;;;4.00;1.90;;;;;;;16.08;45.70;99258.49;238688;1192;141227;-59
2022/09/03 01:04:47;;;;;;;4.40;1.90;;;;;;;16.07;45.72;99253.65;238612;1191;139441;-58
2022/09/03 01:10:07;;;;;;;2.70;2.00;;;;;;;16.05;45.62;99258.64;238479;1191;139222;-58
2022/09/03 01:15:20;;;;;;;4.80;2.20;;;;;;;16.03;45.82;99258.81;238533;1192;139940;-60
2022/09/03 01:20:42;;;;;;;5.20;1.80;;;;;;;16.01;45.93;99258.98;238730;1191;139693;-59
2022/09/03 01:26:04;;;;;;;3.80;2.00;;;;;;;15.95;45.94;99259.05;238699;1192;140226;-57
2022/09/03 01:31:28;;;;;;;3.50;2.00;;;;;;;15.96;46.18;99264.22;238970;1190;139371;-60
2022/09/03 01:36:37;;;;;;;5.30;2.10;;;;;;;15.97;46.16;99260.02;238979;1191;140459;-59
2022/09/03 01:42:17;;;;;;;3.90;1.90;;;;;;;15.96;46.33;99259.23;238650;1190;140357;-60
2022/09/03 01:47:37;;;;;;;5.40;2.00;;;;;;;15.93;46.44;99263.35;238594;1191;140428;-59
2022/09/03 01:52:49;;;;;;;4.50;2.10;;;;;;;15.90;46.49;99257.52;238725;1191;141629;-59
2022/09/03 01:58:25;;;;;;;4.20;2.20;;;;;;;15.87;46.65;99254.55;238554;1192;139757;-59
2022/09/03 02:03:39;;;;;;;7.40;2.60;;;;;;;15.85;46.79;99256.65;238689;1191;140175;-58
2022/09/03 02:08:43;;;;;;;5.20;2.30;;;;;;;15.80;46.93;99255.98;238768;1190;139773;-57
2022/09/03 02:13:51;;;;;;;4.40;2.10;;;;;;;15.73;47.09;99264.92;238732;1190;139757;-60
2022/09/03 02:19:09;;;;;;;9.00;2.80;;;;;;;15.67;47.17;99268.30;238768;1192;140752;-58
2022/09/03 02:24:12;;;;;;;5.50;2.00;;;;;;;15.59;47.23;99268.17;238832;1192;139052;-58
2022/09/03 02:29:16;;;;;;;8.30;2.60;;;;;;;15.51;47.44;99268.33;238663;1191;140681;-57
2022/09/03 02:34:19;;;;;;;6.80;2.30;;;;;;;15.43;47.58;99270.84;238382;1190;139568;-58
2022/09/03 02:39:22;;;;;;;8.60;2.80;;;;;;;15.36;47.63;99272.45;238848;1190;139552;-59
2022/09/03 02:44:30;;;;;;;6.80;2.50;;;;;;;15.27;47.69;99272.27;238833;1191;139542;-59
2022/09/03 02:49:33;;;;;;;4.00;2.40;;;;;;;15.20;48.01;99267.50;238736;1190;139530;-59
2022/09/03 02:54:40;;;;;;;6.30;2.70;;;;;;;15.12;48.22;99265.94;238921;1191;139948;-56
2022/09/03 02:59:44;;;;;;;4.60;2.40;;;;;;;15.07;48.38;99266.18;238816;1190;139750;-58
2022/09/03 03:04:48;;;;;;;7.70;2.90;;;;;;;15.01;48.56;99271.45;238721;1191;139630;-58
2022/09/03 03:09:51;;;;;;;5.30;2.60;;;;;;;14.96;48.72;99272.53;238732;1190;139673;-58
2022/09/03 03:14:56;;;;;;;5.20;2.80;;;;;;;14.92;49.06;99273.76;238713;1191;140212;-57
2022/09/03 03:20:00;;;;;;;6.50;2.80;;;;;;;14.84;49.19;99277.17;238700;1191;141461;-58
2022/09/03 03:25:04;;;;;;;10.10;2.60;;;;;;;14.79;49.45;99282.73;238754;1192;139956;-58
2022/09/03 03:30:09;;;;;;;4.70;2.60;;;;;;;14.75;49.71;99281.30;238811;1192;140167;-58
2022/09/03 03:35:12;;;;;;;7.20;2.90;;;;;;;14.73;49.96;99279.85;238816;1190;140316;-59
2022/09/03 03:40:16;;;;;;;5.30;2.80;;;;;;;14.72;50.20;99278.34;238755;1190;141284;-56
2022/09/03 03:45:19;;;;;;;7.60;2.90;;;;;;;14.71;50.36;99280.50;238645;1192;140040;-59
2022/09/03 03:50:22;;;;;;;6.00;2.70;;;;;;;14.69;50.48;99277.80;238638;1190;140096;-59
2022/09/03 03:55:25;;;;;;;6.80;2.80;;;;;;;14.63;50.64;99280.73;238894;1191;139644;-59
2022/09/03 04:00:28;;;;;;;7.30;3.30;;;;;;;14.58;50.89;99280.61;238786;1191;140040;-59
2022/09/03 04:05:31;;;;;;;4.00;2.40;;;;;;;14.54;51.09;99284.48;238791;1191;140432;-59
2022/09/03 04:10:35;;;;;;;7.40;2.80;;;;;;;14.51;51.30;99284.13;238757;1190;139562;-59
2022/09/03 04:15:39;;;;;;;7.30;3.10;;;;;;;14.47;51.34;99290.98;238809;1190;140333;-59
2022/09/03 04:20:43;;;;;;;6.80;3.00;;;;;;;14.42;51.67;99286.35;238680;1191;139445;-59
2022/09/03 04:25:51;;;;;;;8.50;3.00;;;;;;;14.38;51.85;99283.64;238499;1192;139710;-59
2022/09/03 04:31:03;;;;;;;10.20;3.30;;;;;;;14.36;52.12;99282.04;238577;1192;140159;-59
2022/09/03 04:36:21;;;;;;;7.40;3.40;;;;;;;14.35;52.37;99282.22;238816;1191;140067;-58
2022/09/03 04:41:27;;;;;;;6.40;3.10;;;;;;;14.40;52.68;99283.30;238789;1191;139699;-58
2022/09/03 04:46:33;;;;;;;5.40;3.00;;;;;;;14.46;52.68;99285.91;238628;1191;139453;-59
2022/09/03 04:51:37;;;;;;;6.00;3.00;;;;;;;14.53;52.92;99284.34;238559;1191;139852;-59
2022/09/03 04:56:40;;;;;;;6.10;3.10;;;;;;;14.61;53.06;99288.20;238671;1191;139934;-59
2022/09/03 05:01:43;;;;;;;5.70;2.60;;;;;;;14.70;53.24;99290.73;238730;1190;139329;-59
2022/09/03 05:06:46;;;;;;;5.30;3.00;;;;;;;14.80;53.17;99296.79;238927;1191;139291;-59
2022/09/03 05:11:49;;;;;;;3.20;2.40;;;;;;;14.89;53.29;99303.45;238762;1190;140850;-59
2022/09/03 05:16:52;;;;;;;4.40;2.70;;;;;;;14.98;53.31;99299.41;238832;1190;140288;-59
2022/09/03 05:21:55;;;;;;;7.00;2.90;;;;;;;15.06;53.39;99298.61;238042;1192;139794;-59
2022/09/03 05:26:58;;;;;;;6.90;3.10;;;;;;;15.15;53.53;99303.63;238753;1191;139284;-59
2022/09/03 05:32:02;;;;;;;4.80;2.90;;;;;;;15.22;53.43;99314.17;238530;1190;141153;-59
2022/09/03 05:37:05;;;;;;;6.40;3.20;;;;;;;15.28;53.62;99321.02;238850;1191;139563;-58
2022/09/03 05:42:08;;;;;;;7.90;3.30;;;;;;;15.33;53.65;99319.70;238607;1191;139261;-59
2022/09/03 05:47:11;;;;;;;6.30;3.10;;;;;;;15.41;53.58;99318.07;238624;1191;139266;-58
2022/09/03 05:52:15;;;;;;;6.00;3.00;;;;;;;15.52;53.83;99319.01;238714;1191;140510;-59
2022/09/03 05:57:18;;;;;;;5.90;3.30;;;;;;;15.64;53.86;99306.11;238823;1191;139766;-59
2022/09/03 06:02:24;;;;;;;5.70;3.00;;;;;;;15.72;53.81;99296.66;238755;1191;140203;-59
2022/09/03 06:07:28;;;;;;;6.50;2.90;;;;;;;15.82;53.85;99293.22;238908;1191;139826;-59
2022/09/03 06:12:31;;;;;;;10.10;3.30;;;;;;;15.91;54.10;99288.76;238740;1191;139806;-59
2022/09/03 06:17:34;;;;;;;6.00;3.10;;;;;;;15.98;53.89;99287.65;238832;1190;141760;-60
2022/09/03 06:22:36;;;;;;;9.30;5.30;;;;;;;16.09;54.14;99295.20;238860;1190;139667;-60
2022/09/03 06:27:39;;;;;;;8.90;3.60;;;;;;;16.19;54.28;99301.34;238672;1191;139133;-59
2022/09/03 06:32:44;;;;;;;5.90;2.80;;;;;;;16.28;54.32;99306.87;238553;1191;139657;-59
2022/09/03 06:37:47;;;;;;;6.60;3.60;;;;;;;16.39;54.50;99314.98;238734;1191;139209;-58
2022/09/03 06:43:00;;;;;;;8.00;4.10;;;;;;;16.50;54.43;99312.73;238907;1190;139499;-59
2022/09/03 06:48:04;;;;;;;7.30;3.50;;;;;;;16.63;54.36;99312.44;238786;1192;139944;-59
2022/09/03 06:53:07;;;;;;;9.40;2.90;;;;;;;16.75;54.56;99308.77;238728;1192;140454;-58
2022/09/03 06:58:10;;;;;;;7.20;3.00;;;;;;;16.90;54.66;99314.00;238875;1190;139735;-59
2022/09/03 07:03:13;;;;;;;4.60;2.90;;;;;;;17.03;54.64;99316.84;238878;1190;139539;-59
2022/09/03 07:08:16;;;;;;;6.40;2.80;;;;;;;17.09;54.49;99310.60;238544;1192;139653;-59
2022/09/03 07:13:19;;;;;;;5.40;3.00;;;;;;;17.18;54.69;99307.27;238721;1192;139523;-59
2022/09/03 07:18:24;;;;;;;5.70;2.80;;;;;;;17.29;54.61;99318.02;238774;1190;140460;-59
2022/09/03 07:23:29;;;;;;;3.00;2.10;;;;;;;17.37;54.38;99324.89;238853;1190;139970;-59
2022/09/03 07:28:35;;;;;;;8.00;2.80;;;;;;;17.39;54.30;99331.91;238795;1192;139251;-59
2022/09/03 07:33:38;;;;;;;4.70;2.40;;;;;;;17.44;54.26;99339.56;238826;1190;140110;-59
2022/09/03 07:38:46;;;;;;;5.40;2.30;;;;;;;17.48;54.35;99340.02;238825;1190;138968;-59
2022/09/03 07:43:49;;;;;;;4.20;2.40;;;;;;;17.53;54.42;99335.48;238854;1190;139610;-59
2022/09/03 07:48:57;;;;;;;4.00;2.30;;;;;;;17.62;54.42;99331.37;238775;1191;139849;-59
2022/09/03 07:54:04;;;;;;;4.70;2.30;;;;;;;17.69;54.26;99337.34;238724;1191;140261;-61
2022/09/03 07:59:08;;;;;;;4.10;2.10;;;;;;;17.77;54.19;99344.24;238824;1192;139657;-59
2022/09/03 08:04:10;;;;;;;3.90;2.30;;;;;;;17.80;54.12;99347.02;238726;1190;140027;-59
2022/09/03 08:09:14;;;;;;;4.50;2.10;;;;;;;17.80;53.94;99350.58;238652;1191;139583;-59
2022/09/03 08:14:17;;;;;;;3.00;1.90;;;;;;;17.84;53.91;99353.89;238752;1192;141945;-61
2022/09/03 08:19:21;;;;;;;3.40;2.00;;;;;;;17.83;53.82;99353.55;238900;1190;138937;-59
2022/09/03 08:24:25;;;;;;;3.60;2.00;;;;;;;17.85;53.73;99350.02;238829;1190;140424;-59
2022/09/03 08:29:28;;;;;;;5.30;1.90;;;;;;;17.92;53.83;99346.27;238898;1192;139532;-59
2022/09/03 08:34:31;;;;;;;2.90;2.20;;;;;;;18.00;53.88;99348.33;238878;1192;139668;-59
2022/09/03 08:39:34;;;;;;;3.50;2.20;;;;;;;18.09;53.78;99349.91;238787;1191;139870;-60
2022/09/03 08:44:48;;;;;;;4.90;2.50;;;;;;;18.17;53.80;99346.98;238673;1190;139404;-60
2022/09/03 08:50:01;;;;;;;5.70;2.20;;;;;;;18.22;53.55;99344.02;238673;1190;139606;-60
2022/09/03 08:55:19;;;;;;;5.90;2.30;;;;;;;18.24;53.47;99343.65;238769;1192;140107;-59
2022/09/03 09:00:22;;;;;;;109.90;86.80;;;;;;;18.37;54.01;99350.30;238673;1191;139642;-59
2022/09/03 09:05:41;;;;;;;9.20;6.40;;;;;;;18.60;54.06;99350.71;238784;1192;140326;-60
2022/09/03 09:10:47;;;;;;;4.90;3.10;;;;;;;18.70;53.44;99353.03;238727;1191;139789;-60
2022/09/03 09:16:08;;;;;;;6.40;2.90;;;;;;;18.73;53.18;99353.93;238780;1192;139349;-60
2022/09/03 09:21:21;;;;;;;8.40;4.20;;;;;;;18.75;53.13;99358.36;238824;1190;139917;-60
2022/09/03 09:26:29;;;;;;;4.70;2.80;;;;;;;18.74;52.91;99358.27;238743;1190;139449;-59
2022/09/03 09:31:34;;;;;;;6.00;2.70;;;;;;;18.66;52.72;99365.96;238834;1191;138948;-59
2022/09/03 09:36:51;;;;;;;7.20;2.90;;;;;;;18.56;52.73;99372.65;238854;1192;139203;-60
2022/09/03 09:42:08;;;;;;;3.50;2.80;;;;;;;18.52;52.88;99365.93;238838;1190;139147;-60
2022/09/03 09:47:35;;;;;;;85.40;54.20;;;;;;;18.53;52.98;99362.84;238767;1190;140545;-57
2022/09/03 09:52:38;;;;;;;5.60;4.20;;;;;;;18.53;52.86;99364.26;238565;1192;139921;-59
2022/09/03 09:57:41;;;;;;;5.70;3.50;;;;;;;18.47;52.82;99368.55;238660;1190;140510;-59
2022/09/03 10:02:55;;;;;;;4.80;2.70;;;;;;;18.45;52.82;99372.50;238523;1192;139486;-59
2022/09/03 10:08:17;;;;;;;5.70;3.20;;;;;;;18.48;52.77;99369.71;238563;1192;141070;-57
2022/09/03 10:13:41;;;;;;;73.00;51.00;;;;;;;18.52;52.90;99374.81;238580;1192;139494;-58
2022/09/03 10:18:53;;;;;;;14.80;10.00;;;;;;;18.58;53.14;99368.71;238717;1192;139295;-59
2022/09/03 10:24:15;;;;;;;10.20;6.70;;;;;;;18.86;53.86;99357.75;238844;1192;139837;-59
2022/09/03 10:29:21;;;;;;;10.70;8.10;;;;;;;19.12;53.53;99336.98;238675;1191;141341;-59
2022/09/03 10:34:35;;;;;;;9.60;6.00;;;;;;;19.29;53.22;99338.11;238508;1192;139541;-59
2022/09/03 10:39:55;;;;;;;6.30;4.80;;;;;;;19.32;52.99;99344.61;238552;1191;139775;-59
2022/09/03 10:45:27;;;;;;;7.50;3.80;;;;;;;19.42;53.03;99346.73;238534;1192;139312;-59
2022/09/03 10:50:41;;;;;;;5.00;3.40;;;;;;;19.57;52.73;99361.88;238721;1192;139512;-59
2022/09/03 10:56:14;;;;;;;3.90;2.90;;;;;;;19.48;51.97;99358.45;238741;1190;138810;-58
2022/09/03 11:01:22;;;;;;;6.90;2.90;;;;;;;19.28;51.94;99357.77;238889;1190;140995;-59
2022/09/03 11:06:33;;;;;;;6.50;3.40;;;;;;;19.22;52.05;99355.16;238564;1191;139124;-59
2022/09/03 11:11:43;;;;;;;7.70;3.60;;;;;;;19.11;51.89;99352.00;238118;1190;139622;-59
2022/09/03 11:16:53;;;;;;;8.10;3.70;;;;;;;19.07;52.13;99353.45;238526;1191;139620;-59
2022/09/03 11:21:56;;;;;;;4.40;2.90;;;;;;;19.28;52.69;99350.98;238667;1192;140066;-59
2022/09/03 11:27:19;;;;;;;3.60;2.70;;;;;;;19.49;52.65;99355.10;238609;1191;140487;-59
2022/09/03 11:32:53;;;;;;;3.90;3.00;;;;;;;19.69;52.60;99348.36;238550;1190;139705;-58
2022/09/03 11:38:02;;;;;;;6.00;3.60;;;;;;;19.97;52.30;99334.89;238728;1190;139022;-59
2022/09/03 11:43:25;;;;;;;5.30;3.50;;;;;;;20.02;51.86;99325.77;238618;1190;141529;-59
2022/09/03 11:48:45;;;;;;;72.00;49.60;;;;;;;19.99;51.86;99321.00;238329;1192;140584;-59
2022/09/03 11:54:02;;;;;;;13.60;7.90;;;;;;;20.09;51.94;99315.22;238631;1190;139351;-59
2022/09/03 11:59:12;;;;;;;5.40;4.60;;;;;;;20.20;52.19;99309.58;238817;1190;139105;-59
2022/09/03 12:04:16;;;;;;;5.20;3.30;;;;;;;20.32;51.85;99307.50;238879;1190;139861;-60
2022/09/03 12:09:46;;;;;;;4.00;3.20;;;;;;;20.41;51.73;99312.07;238826;1190;140464;-59
2022/09/03 12:15:13;;;;;;;5.50;3.00;;;;;;;20.56;51.46;99304.83;238825;1190;139497;-56
2022/09/03 12:20:17;;;;;;;4.80;2.50;;;;;;;20.86;51.33;99306.49;238395;1190;139684;-59
2022/09/03 12:25:20;;;;;;;12.60;9.10;;;;;;;21.00;50.86;99312.14;239085;1190;139138;-59
2022/09/03 12:30:23;;;;;;;6.80;4.10;;;;;;;21.09;50.60;99307.48;238522;1190;140145;-58
2022/09/03 12:35:27;;;;;;;6.00;3.20;;;;;;;21.27;50.51;99302.52;238876;1190;139234;-58
2022/09/03 12:40:51;;;;;;;3.40;2.60;;;;;;;21.33;50.03;99300.67;238803;1190;141552;-58
2022/09/03 12:46:14;;;;;;;5.20;2.50;;;;;;;21.27;49.56;99292.95;238969;1190;140873;-59
2022/09/03 12:51:18;;;;;;;3.80;2.30;;;;;;;21.45;49.69;99286.09;238961;1190;138977;-56
2022/09/03 12:56:44;;;;;;;3.40;2.40;;;;;;;21.61;49.32;99279.60;238981;1190;139705;-57
2022/09/03 13:01:51;;;;;;;3.90;2.30;;;;;;;21.49;48.93;99284.80;238948;1190;139766;-61
2022/09/03 13:07:02;;;;;;;3.80;2.80;;;;;;;21.43;48.72;99276.70;239088;1190;139299;-60
2022/09/03 13:12:06;;;;;;;3.80;2.90;;;;;;;21.40;48.77;99272.75;238960;1190;140680;-58
2022/09/03 13:17:42;;;;;;;4.10;2.50;;;;;;;21.42;49.02;99279.32;238961;1190;139334;-59
2022/09/03 13:22:59;;;;;;;4.30;2.90;;;;;;;21.40;48.70;99278.89;238611;1190;151296;-59
2022/09/03 13:28:40;;;;;;;12.00;8.20;;;;;;;21.38;48.62;99282.35;238905;1190;139806;-57
2022/09/03 13:33:49;;;;;;;7.70;3.40;;;;;;;21.37;48.59;99279.19;238931;1190;140322;-57
2022/09/03 13:39:01;;;;;;;6.70;3.50;;;;;;;21.39;48.42;99271.77;238946;1190;139331;-59
2022/09/03 13:44:10;;;;;;;4.50;3.20;;;;;;;21.37;48.51;99274.67;238936;1190;140457;-58
2022/09/03 13:55:02;;;;;;;3.10;2.60;;;;;;;21.17;48.26;99271.61;239127;1190;139141;-57
2022/09/03 14:00:09;;;;;;;5.20;2.90;;;;;;;20.95;48.10;99268.33;238515;1190;139014;-57
2022/09/03 14:05:25;;;;;;;3.80;2.80;;;;;;;20.82;48.25;99263.10;238933;1190;139095;-58
2022/09/03 14:10:52;;;;;;;4.80;2.80;;;;;;;20.77;48.44;99268.46;238971;1190;139397;-58
2022/09/03 14:16:14;;;;;;;5.60;2.70;;;;;;;20.80;48.50;99269.07;238966;1190;139651;-57
2022/09/03 14:21:26;;;;;;;3.70;2.70;;;;;;;20.72;48.49;99270.23;238961;1190;139122;-57
2022/09/03 14:26:31;;;;;;;4.00;2.90;;;;;;;20.67;48.45;99271.89;238907;1190;138945;-56
2022/09/03 14:32:16;;;;;;;4.80;2.80;;;;;;;20.55;48.38;99273.19;239010;1192;139900;-57
2022/09/03 14:37:53;;;;;;;7.60;2.40;;;;;;;20.52;48.87;99269.88;238936;1190;139418;-58
2022/09/03 14:43:11;;;;;;;6.50;3.00;;;;;;;20.56;48.98;99261.59;239085;1190;139814;-58
2022/09/03 14:48:46;;;;;;;5.80;3.20;;;;;;;20.59;49.13;99272.51;238873;1191;139577;-58
2022/09/03 14:54:17;;;;;;;3.90;2.70;;;;;;;20.61;49.23;99269.92;238592;1190;141225;-58
2022/09/03 14:59:37;;;;;;;6.70;3.10;;;;;;;20.58;48.99;99266.27;238976;1190;139902;-56
2022/09/03 15:04:55;;;;;;;5.70;2.90;;;;;;;20.57;49.18;99267.25;239009;1189;139261;-58
2022/09/03 15:10:04;;;;;;;5.00;3.00;;;;;;;20.59;49.31;99266.87;238998;1190;139054;-59
2022/09/03 15:15:16;;;;;;;7.00;3.10;;;;;;;20.61;49.48;99265.83;238934;1190;139343;-58
2022/09/03 15:20:49;;;;;;;8.30;3.00;;;;;;;20.63;49.45;99260.54;239048;1190;139415;-57
2022/09/03 15:26:10;;;;;;;7.80;2.40;;;;;;;20.65;49.39;99258.48;239075;1190;139370;-58
2022/09/03 15:31:19;;;;;;;6.30;2.90;;;;;;;20.65;49.28;99261.96;239106;1190;139003;-58
2022/09/03 15:36:34;;;;;;;7.40;3.60;;;;;;;20.61;49.27;99256.54;239003;1190;138947;-59
2022/09/03 15:41:46;;;;;;;6.10;3.30;;;;;;;20.58;49.27;99250.23;239023;1190;139017;-57
2022/09/03 15:46:52;;;;;;;7.40;2.90;;;;;;;20.60;49.31;99249.54;238971;1190;138828;-58
2022/09/03 15:52:05;;;;;;;6.30;2.90;;;;;;;20.61;49.42;99251.70;239014;1190;141633;-57
2022/09/03 15:57:20;;;;;;;6.00;3.40;;;;;;;20.61;49.34;99255.15;238996;1190;139678;-58
2022/09/03 16:02:32;;;;;;;;;;;;;;;20.55;49.21;99257.30;238980;1190;139737;-60
2022/09/03 16:07:57;;;;;;;5.30;3.60;;;;;;;20.45;49.41;99258.61;239165;1190;126131;-57
2022/09/03 16:13:20;;;;;;;6.20;2.70;;;;;;;20.43;49.60;99257.27;238175;1190;251520;-57
2022/09/03 16:18:38;;;;;;;4.60;3.00;;;;;;;20.42;49.57;99254.11;238891;1189;139585;-56
2022/09/03 16:24:02;;;;;;;3.60;2.60;;;;;;;20.41;49.74;99255.80;239070;1190;138671;-57
2022/09/03 16:29:15;;;;;;;4.80;2.70;;;;;;;20.39;49.60;99254.76;238998;1190;139481;-57
2022/09/03 16:34:34;;;;;;;7.40;2.80;;;;;;;20.37;49.71;99249.38;238930;1190;139443;-57
2022/09/03 16:39:51;;;;;;;7.20;2.80;;;;;;;20.38;49.75;99247.83;238961;1190;139191;-57
2022/09/03 16:45:05;;;;;;;7.10;3.80;;;;;;;20.32;49.54;99252.02;238954;1190;139264;-56
2022/09/03 16:50:39;;;;;;;5.90;3.00;;;;;;;20.24;49.53;99246.83;238956;1190;140015;-55
2022/09/03 16:56:03;;;;;;;9.30;2.80;;;;;;;20.19;49.71;99250.48;239085;1190;139073;-56
2022/09/03 17:01:34;;;;;;;3.80;2.80;;;;;;;20.17;49.84;99253.90;239091;1190;139798;-57
2022/09/03 17:06:37;;;;;;;5.20;2.60;;;;;;;20.14;49.95;99255.48;238923;1190;139306;-58
2022/09/03 17:11:40;;;;;;;5.90;2.80;;;;;;;20.16;50.04;99253.62;238997;1190;139080;-56
2022/09/03 17:17:19;;;;;;;8.40;3.20;;;;;;;20.14;49.88;99251.13;238725;1190;139811;-57
2022/09/03 17:22:38;;;;;;;4.50;3.20;;;;;;;20.10;50.04;99248.98;238388;1190;139373;-57
2022/09/03 17:28:08;;;;;;;5.80;3.10;;;;;;;20.07;50.07;99258.26;238281;1190;139722;-57
2022/09/03 17:33:34;;;;;;;5.60;3.20;;;;;;;20.01;50.11;99265.02;238808;1190;139594;-57
2022/09/03 17:38:58;;;;;;;7.20;3.10;;;;;;;19.95;50.16;99266.64;238965;1190;140067;-57
2022/09/03 17:44:28;;;;;;;3.50;3.00;;;;;;;19.91;50.12;99272.84;239089;1190;140001;-55
2022/09/03 17:49:43;;;;;;;5.50;3.20;;;;;;;19.91;50.30;99284.32;239046;1190;139069;-56
2022/09/03 17:54:51;;;;;;;5.60;3.00;;;;;;;19.89;50.32;99292.63;239037;1190;139234;-56
2022/09/03 18:00:01;;;;;;;6.70;3.60;;;;;;;19.90;50.54;99290.41;239043;1190;139195;-57
2022/09/03 18:05:19;;;;;;;;;;;;;;;19.90;50.63;99291.77;238945;1190;140038;-57
2022/09/03 18:10:44;;;;;;;7.70;3.40;;;;;;;19.90;50.65;99294.73;239065;1190;126202;-57
2022/09/03 18:15:59;;;;;;;9.40;3.80;;;;;;;19.86;50.65;99298.35;239007;1190;139313;-56
2022/09/03 20:12:41;;;;;;;10.90;4.90;;;;;;;17.83;52.71;99358.96;238786;1190;139568;-55
2022/09/03 20:17:53;;;;;;;7.50;5.30;;;;;;;17.77;52.92;99356.59;238797;1192;140086;-55
2022/09/03 20:23:32;;;;;;;9.20;5.30;;;;;;;17.75;53.08;99361.23;238734;1191;139051;-54
2022/09/03 20:29:14;;;;;;;7.70;5.10;;;;;;;17.74;53.16;99363.70;238802;1190;140422;-54
2022/09/03 20:34:32;;;;;;;9.70;4.80;;;;;;;17.71;53.22;99359.96;238739;1190;139544;-55
2022/09/03 20:39:41;;;;;;;7.20;5.30;;;;;;;17.64;53.32;99362.52;238785;1190;139240;-56
2022/09/03 20:44:55;;;;;;;9.20;5.60;;;;;;;17.54;53.52;99362.52;238686;1192;139419;-55
2022/09/03 20:50:22;;;;;;;8.10;5.40;;;;;;;17.45;53.69;99370.79;238818;1191;139204;-54
2022/09/03 20:55:39;;;;;;;8.50;5.10;;;;;;;17.38;53.79;99372.66;238847;1190;140611;-56
2022/09/03 21:01:14;;;;;;;8.60;5.30;;;;;;;17.35;54.15;99376.15;238819;1190;139515;-56
2022/09/03 21:06:27;;;;;;;8.60;4.80;;;;;;;17.31;54.16;99375.61;238239;1191;139717;-55
2022/09/03 21:11:33;;;;;;;7.70;5.40;;;;;;;17.22;53.99;99375.63;238682;1191;139509;-55
2022/09/03 21:16:42;;;;;;;8.40;5.70;;;;;;;17.15;54.23;99378.70;238779;1190;139237;-55
2022/09/03 21:22:00;;;;;;;9.10;5.50;;;;;;;17.09;54.49;99377.99;238843;1190;139253;-56
2022/09/03 21:27:09;;;;;;;7.90;5.10;;;;;;;17.01;54.58;99381.46;238626;1192;139220;-56
2022/09/03 21:32:19;;;;;;;8.40;5.40;;;;;;;16.95;54.79;99391.00;238910;1191;139518;-54
2022/09/03 21:37:23;;;;;;;8.30;6.10;;;;;;;16.90;54.78;99385.30;238969;1190;139968;-54
2022/09/03 21:42:58;;;;;;;8.90;5.60;;;;;;;16.86;55.04;99389.05;238789;1191;140912;-56
2022/09/03 21:48:25;;;;;;;9.50;6.10;;;;;;;16.86;55.10;99393.13;238610;1191;139516;-54
2022/09/03 21:53:41;;;;;;;9.10;5.20;;;;;;;16.91;55.34;99385.74;238488;1190;141400;-55
2022/09/03 21:59:04;;;;;;;8.80;5.80;;;;;;;16.91;55.23;99394.52;238815;1190;139980;-56
2022/09/03 22:04:11;;;;;;;8.40;5.80;;;;;;;16.90;55.30;99398.05;238762;1190;139339;-56
2022/09/03 22:09:33;;;;;;;11.40;6.10;;;;;;;16.87;55.14;99393.10;238688;1191;139957;-56
2022/09/03 22:14:46;;;;;;;7.40;5.80;;;;;;;16.80;55.47;99393.48;238513;1192;139620;-55
2022/09/03 22:19:50;;;;;;;8.00;5.40;;;;;;;16.72;55.44;99393.95;238951;1191;140673;-58
2022/09/03 22:25:20;;;;;;;9.40;5.70;;;;;;;16.65;55.51;99391.80;238754;1192;139942;-58
2022/09/03 22:30:23;;;;;;;9.10;5.60;;;;;;;16.58;55.81;99392.16;238595;1192;139891;-57
2022/09/03 22:35:54;;;;;;;8.70;6.00;;;;;;;16.53;55.71;99392.02;238697;1192;139256;-58
2022/09/03 22:41:06;;;;;;;11.00;6.70;;;;;;;16.51;55.95;99396.16;238775;1192;142544;-58
2022/09/03 22:46:21;;;;;;;8.80;6.80;;;;;;;16.50;56.05;99395.91;238772;1191;140403;-58
2022/09/03 22:51:36;;;;;;;13.00;7.50;;;;;;;16.48;56.16;99388.14;238827;1191;139053;-58
2022/09/03 22:56:40;;;;;;;10.30;6.20;;;;;;;16.50;56.25;99387.25;238746;1191;139668;-58
2022/09/03 23:01:58;;;;;;;9.80;6.50;;;;;;;16.57;56.32;99384.02;238871;1192;139939;-58
2022/09/03 23:07:20;;;;;;;10.90;7.00;;;;;;;16.66;56.41;99381.73;238664;1190;139554;-59
2022/09/03 23:13:02;;;;;;;12.30;7.40;;;;;;;16.63;56.24;99384.26;237940;1190;139390;-59
2022/09/03 23:18:16;;;;;;;9.60;6.70;;;;;;;16.58;56.26;99383.02;238295;1191;139651;-59
2022/09/03 23:23:27;;;;;;;9.70;5.80;;;;;;;16.53;56.46;99386.16;238544;1191;139309;-58
2022/09/03 23:28:35;;;;;;;8.20;5.70;;;;;;;16.46;56.37;99379.70;238536;1192;139317;-60
2022/09/03 23:33:38;;;;;;;8.10;6.00;;;;;;;16.37;56.41;99379.74;238699;1192;139110;-59
2022/09/03 23:39:27;;;;;;;7.90;6.00;;;;;;;16.27;56.62;99382.70;238747;1191;139396;-59
2022/09/03 23:44:35;;;;;;;8.80;6.10;;;;;;;16.17;56.72;99393.17;238725;1190;138950;-58
2022/09/03 23:50:06;;;;;;;9.40;5.90;;;;;;;16.06;56.58;99394.36;238790;1191;138991;-58
2022/09/03 23:55:32;;;;;;;7.30;5.80;;;;;;;15.98;56.95;99396.42;238822;1190;140757;-58
